createdAt,value
2023-01-30T00:08:10.836Z,10.40
2023-01-30T00:13:15.379Z,10.30
2023-01-30T00:18:18.781Z,11.20
2023-01-30T00:23:22.299Z,9.70
2023-01-30T00:28:26.136Z,11.30
2023-01-30T00:33:31.009Z,10.60
2023-01-30T00:38:34.494Z,10.50
2023-01-30T00:43:56.435Z,11.80
2023-01-30T00:48:59.946Z,10.90
2023-01-30T00:54:04.138Z,9.30
2023-01-30T00:59:07.489Z,9.70
2023-01-30T01:04:11.209Z,10.30
2023-01-30T01:09:14.931Z,9.80
2023-01-30T01:14:18.342Z,8.50
2023-01-30T01:19:22.064Z,10.10
2023-01-30T01:24:25.578Z,10.00
2023-01-30T01:29:28.991Z,10.60
2023-01-30T01:34:32.714Z,10.90
2023-01-30T01:39:54.866Z,6.20
2023-01-30T01:45:14.435Z,10.40
2023-01-30T01:50:27.391Z,10.00
2023-01-30T01:55:32.241Z,9.30
2023-01-30T02:00:35.860Z,7.90
2023-01-30T02:05:44.903Z,9.80
2023-01-30T02:10:51.286Z,8.20
2023-01-30T02:15:58.495Z,9.40
2023-01-30T02:21:43.888Z,9.50
2023-01-30T02:27:41.372Z,9.30
2023-01-30T02:32:50.923Z,8.10
2023-01-30T02:38:09.801Z,7.70
2023-01-30T02:43:45.066Z,7.20
2023-01-30T02:48:54.146Z,8.70
2023-01-30T02:53:59.366Z,8.60
2023-01-30T02:59:09.059Z,6.90
2023-01-30T03:04:35.987Z,8.80
2023-01-30T03:10:05.921Z,8.90
2023-01-30T03:15:18.043Z,8.40
2023-01-30T03:20:22.066Z,8.20
2023-01-30T03:25:28.874Z,7.80
2023-01-30T03:30:32.470Z,6.60
2023-01-30T03:35:36.618Z,7.30
2023-01-30T03:40:40.121Z,8.00
2023-01-30T03:45:43.748Z,8.00
2023-01-30T03:50:47.254Z,8.40
2023-01-30T03:55:50.870Z,8.40
2023-01-30T04:00:57.583Z,8.50
2023-01-30T04:06:01.280Z,8.80
2023-01-30T04:11:05.013Z,7.80
2023-01-30T04:16:19.029Z,5.00
2023-01-30T04:21:22.680Z,6.40
2023-01-30T04:26:26.212Z,7.10
2023-01-30T04:31:29.785Z,7.70
2023-01-30T04:36:33.534Z,6.80
2023-01-30T04:41:37.049Z,7.30
2023-01-30T04:46:40.671Z,3.80
2023-01-30T04:51:44.284Z,6.10
2023-01-30T04:56:47.902Z,5.80
2023-01-30T05:01:51.561Z,7.20
2023-01-30T05:06:55.048Z,7.50
2023-01-30T05:11:58.876Z,5.90
2023-01-30T05:17:02.461Z,4.90
2023-01-30T05:22:06.098Z,6.80
2023-01-30T05:27:09.913Z,7.30
2023-01-30T05:32:15.186Z,7.20
2023-01-30T05:37:18.703Z,8.90
2023-01-30T05:42:22.200Z,7.30
2023-01-30T05:47:25.720Z,6.00
2023-01-30T05:52:29.236Z,8.00
2023-01-30T05:57:32.754Z,7.80
2023-01-30T06:02:36.403Z,6.30
2023-01-30T06:07:40.189Z,7.40
2023-01-30T06:12:43.685Z,6.90
2023-01-30T06:17:47.119Z,5.70
2023-01-30T06:22:51.147Z,6.10
2023-01-30T06:27:54.668Z,5.60
2023-01-30T06:32:58.082Z,6.10
2023-01-30T06:38:01.590Z,5.90
2023-01-30T06:43:05.936Z,5.80
2023-01-30T06:48:10.266Z,5.80
2023-01-30T06:58:17.087Z,7.70
2023-01-30T07:03:20.619Z,7.40
2023-01-30T07:08:24.494Z,6.40
2023-01-30T07:13:28.150Z,6.50
2023-01-30T07:18:31.763Z,6.30
2023-01-30T07:23:36.312Z,6.20
2023-01-30T07:33:43.129Z,5.60
2023-01-30T07:38:49.841Z,6.50
2023-01-30T07:43:53.548Z,5.80
2023-01-30T07:48:58.981Z,5.70
2023-01-30T07:54:04.282Z,5.10
2023-01-30T08:04:11.603Z,5.20
2023-01-30T08:09:15.220Z,5.90
2023-01-30T08:14:18.833Z,5.70
2023-01-30T08:19:22.451Z,3.50
2023-01-30T08:24:26.067Z,4.70
2023-01-30T08:29:30.196Z,4.60
2023-01-30T08:34:33.922Z,5.70
2023-01-30T08:39:37.429Z,4.90
2023-01-30T08:44:41.052Z,5.70
2023-01-30T08:49:44.671Z,4.20
2023-01-30T08:54:48.314Z,3.40
2023-01-30T08:59:52.530Z,4.50
2023-01-30T09:04:56.037Z,4.90
2023-01-30T09:09:59.564Z,4.00
2023-01-30T09:15:03.393Z,4.60
2023-01-30T09:20:08.694Z,4.80
2023-01-30T09:25:12.348Z,4.50
2023-01-30T09:30:17.065Z,4.20
2023-01-30T09:35:20.709Z,7.20
2023-01-30T09:40:29.462Z,4.90
2023-01-30T09:46:02.832Z,5.10
2023-01-30T09:51:21.656Z,5.50
2023-01-30T09:56:25.665Z,8.30
2023-01-30T10:01:48.538Z,5.90
2023-01-30T10:06:59.529Z,6.20
2023-01-30T10:12:17.067Z,5.10
2023-01-30T10:17:37.172Z,10.70
2023-01-30T10:23:02.602Z,9.30
2023-01-30T10:28:18.716Z,9.40
2023-01-30T10:33:30.628Z,8.70
2023-01-30T10:38:42.238Z,7.50
2023-01-30T10:43:55.065Z,6.50
2023-01-30T10:49:01.649Z,9.20
2023-01-30T10:54:38.041Z,12.80
2023-01-30T10:59:56.611Z,12.80
2023-01-30T11:05:10.159Z,11.20
2023-01-30T11:10:26.601Z,13.60
2023-01-30T11:15:41.471Z,13.40
2023-01-30T11:20:51.729Z,8.50
2023-01-30T11:26:10.480Z,11.50
2023-01-30T11:31:40.010Z,13.90
2023-01-30T11:36:47.429Z,9.30
2023-01-30T11:41:53.822Z,8.40
2023-01-30T11:47:24.265Z,8.80
2023-01-30T11:52:32.297Z,11.00
2023-01-30T11:57:51.341Z,10.50
2023-01-30T12:02:57.981Z,8.80
2023-01-30T12:08:27.758Z,7.20
2023-01-30T12:13:45.943Z,12.50
2023-01-30T12:19:04.007Z,13.30
2023-01-30T12:24:30.254Z,6.10
2023-01-30T12:29:56.009Z,5.30
2023-01-30T12:35:00.128Z,7.00
2023-01-30T12:40:43.392Z,5.10
2023-01-30T12:46:11.385Z,7.30
2023-01-30T12:51:49.810Z,5.40
2023-01-30T12:57:05.577Z,5.50
2023-01-30T13:02:51.154Z,8.60
2023-01-30T13:08:01.395Z,5.20
2023-01-30T13:13:29.662Z,5.40
2023-01-30T13:19:07.085Z,8.90
2023-01-30T13:24:32.461Z,11.80
2023-01-30T13:29:41.345Z,5.50
2023-01-30T13:34:48.164Z,5.40
2023-01-30T13:40:00.198Z,6.30
2023-01-30T13:45:06.112Z,4.90
2023-01-30T13:50:35.135Z,4.80
2023-01-30T13:56:32.789Z,5.40
2023-01-30T14:02:04.278Z,4.40
2023-01-30T14:07:39.659Z,6.10
2023-01-30T14:12:52.265Z,5.00
2023-01-30T14:17:59.376Z,5.20
2023-01-30T14:23:05.169Z,6.10
2023-01-30T14:28:10.604Z,6.60
2023-01-30T14:33:34.282Z,7.00
2023-01-30T14:38:40.814Z,8.00
2023-01-30T14:43:44.343Z,10.30
2023-01-30T14:49:04.627Z,12.40
2023-01-30T14:54:17.056Z,7.80
2023-01-30T14:59:29.565Z,7.40
2023-01-30T15:04:51.710Z,7.50
2023-01-30T15:10:20.153Z,6.80
2023-01-30T15:16:05.270Z,6.30
2023-01-30T15:21:43.747Z,5.60
2023-01-30T15:27:11.728Z,5.80
2023-01-30T15:32:22.719Z,5.50
2023-01-30T15:37:38.731Z,5.60
2023-01-30T15:42:54.439Z,5.50
2023-01-30T15:48:43.002Z,6.20
2023-01-30T15:53:48.045Z,5.20
2023-01-30T15:58:59.965Z,6.10
2023-01-30T16:04:08.298Z,6.90
2023-01-30T16:09:23.146Z,9.10
2023-01-30T16:14:26.582Z,6.80
2023-01-30T16:19:33.419Z,7.50
2023-01-30T16:24:38.152Z,7.10
2023-01-30T16:29:52.617Z,9.90
2023-01-30T16:35:26.966Z,7.40
2023-01-30T16:40:44.185Z,7.50
2023-01-30T16:45:47.733Z,6.70
2023-01-30T16:51:00.210Z,7.70
2023-01-30T16:56:10.179Z,5.90
2023-01-30T17:01:13.686Z,5.10
2023-01-30T17:06:25.735Z,5.30
2023-01-30T17:11:37.782Z,4.50
2023-01-30T17:16:43.273Z,4.10
2023-01-30T17:21:51.435Z,5.30
2023-01-30T17:27:02.738Z,4.30
2023-01-30T17:32:12.017Z,4.30
2023-01-30T17:37:21.625Z,5.00
2023-01-30T17:42:24.983Z,6.00
2023-01-30T17:47:29.286Z,4.30
2023-01-30T17:52:32.786Z,4.80
2023-01-30T17:57:36.199Z,11.20
2023-01-30T18:02:39.729Z,6.20
2023-01-30T18:07:44.243Z,7.20
2023-01-30T18:17:51.916Z,11.40
2023-01-30T18:27:58.725Z,7.00
2023-01-30T18:33:02.437Z,9.60
2023-01-30T18:38:06.163Z,11.10
2023-01-30T18:43:09.776Z,16.30
2023-01-30T18:48:13.706Z,6.90
2023-01-30T18:53:17.731Z,8.40
2023-01-30T18:58:21.149Z,8.80
2023-01-30T19:03:26.023Z,10.80
2023-01-30T19:08:31.495Z,18.80
2023-01-30T19:13:36.913Z,12.70
2023-01-30T19:18:40.443Z,9.20
2023-01-30T19:23:44.153Z,12.50
2023-01-30T19:28:48.490Z,14.50
2023-01-30T19:39:04.027Z,11.00
2023-01-30T19:44:08.755Z,14.60
2023-01-30T19:49:16.041Z,16.90
2023-01-30T19:54:20.806Z,14.10
2023-01-30T19:59:24.221Z,17.60
2023-01-30T20:04:30.632Z,17.50
2023-01-30T20:09:35.878Z,14.70
2023-01-30T20:14:39.581Z,8.80
2023-01-30T20:19:43.097Z,5.70
2023-01-30T20:24:47.838Z,4.10
2023-01-30T20:29:51.358Z,4.40
2023-01-30T20:34:54.973Z,4.20
2023-01-30T20:39:58.594Z,4.00
2023-01-30T20:45:03.556Z,4.20
2023-01-30T20:50:07.688Z,3.50
2023-01-30T21:00:15.317Z,4.20
2023-01-30T21:05:19.761Z,3.90
2023-01-30T21:10:25.396Z,2.80
2023-01-30T21:15:29.039Z,3.20
2023-01-30T21:20:32.467Z,4.50
2023-01-30T21:25:36.945Z,3.50
2023-01-30T21:30:42.241Z,3.30
2023-01-30T21:35:45.967Z,3.40
2023-01-30T21:41:12.231Z,2.90
2023-01-30T21:46:17.118Z,3.50
2023-01-30T21:51:21.823Z,3.40
2023-01-30T21:56:27.054Z,4.20
2023-01-30T22:01:30.609Z,4.30
2023-01-30T22:06:34.200Z,3.60
2023-01-30T22:11:38.020Z,3.00
2023-01-30T22:16:42.356Z,4.00
2023-01-30T22:21:45.776Z,4.30
2023-01-30T22:26:50.839Z,3.00
2023-01-30T22:31:55.022Z,3.20
2023-01-30T22:42:03.331Z,3.20
2023-01-30T22:47:06.886Z,2.70
2023-01-30T22:52:10.442Z,2.90
2023-01-30T22:57:13.958Z,4.00
2023-01-30T23:02:17.605Z,3.50
2023-01-30T23:07:22.537Z,3.30
2023-01-30T23:12:44.683Z,3.20
2023-01-30T23:18:06.733Z,4.00
2023-01-30T23:23:10.350Z,3.90
2023-01-30T23:28:13.964Z,3.20
2023-01-30T23:33:17.586Z,3.60
2023-01-30T23:38:22.227Z,3.40
2023-01-30T23:43:25.738Z,3.50
2023-01-30T23:48:29.262Z,2.80
2023-01-30T23:53:33.592Z,4.40
